This is the latest recevied weather packets stored in our database for station/object K8GLX. If no packets are shown the sender has not sent any weather packets the latest 1 day(s).
| Time | Temp. | Humidity | Pressure | Rain* | Wind** | Luminosity | Snow |
|---|---|---|---|---|---|---|---|
| 1777968428 | 20° C | 59% | 1002.4 hPa | 0 mm | 3.13 m/s, 216° | 0 W/m² | - |
| 1777968134 | 20° C | 58% | 1002.2 hPa | 0 mm | 4.02 m/s, 232° | 0 W/m² | - |
| 1777967829 | 20° C | 58% | 1002.1 hPa | 0 mm | 0.89 m/s, 262° | 0 W/m² | - |
| 1777967534 | 20° C | 58% | 1002.1 hPa | 0 mm | 2.68 m/s, 260° | 0 W/m² | - |
| 1777967229 | 20° C | 58% | 1002.2 hPa | 0 mm | 1.79 m/s, 237° | 0 W/m² | - |
| 1777967061 | 20° C | 58% | 1002.1 hPa | 0 mm | 2.24 m/s, 233° | 0 W/m² | - |
| 1777966629 | 20° C | 58% | 1002.1 hPa | 0 mm | 1.34 m/s, 251° | 0 W/m² | - |
| 1777966461 | 20.56° C | 57% | 1001.8 hPa | 0 mm | 1.34 m/s, 243° | 0 W/m² | - |
| 1777966028 | 20.56° C | 56% | 1001.9 hPa | 0 mm | 1.34 m/s, 253° | 0 W/m² | - |
| 1777965735 | 20.56° C | 56% | 1001.9 hPa | 0 mm | 2.68 m/s, 257° | 0 W/m² | - |
| 1777965429 | 20.56° C | 56% | 1002 hPa | 0 mm | 1.79 m/s, 226° | 0 W/m² | - |
| 1777965134 | 20.56° C | 57% | 1002.1 hPa | 0 mm | 2.68 m/s, 237° | 0 W/m² | - |
| 1777964828 | 20.56° C | 58% | 1001.9 hPa | 0 mm | 1.79 m/s, 241° | 0 W/m² | - |
| 1777964534 | 20.56° C | 57% | 1002 hPa | 0 mm | 2.68 m/s, 243° | 0 W/m² | - |
| 1777964229 | 20.56° C | 57% | 1001.7 hPa | 0 mm | 6.71 m/s, 223° | 0 W/m² | - |
| 1777963939 | 20.56° C | 58% | 1001.9 hPa | 0 mm | 2.68 m/s, 219° | 0 W/m² | - |
| 1777963628 | 20.56° C | 58% | 1001.9 hPa | 0 mm | 1.34 m/s, 256° | 0 W/m² | - |
| 1777963461 | 20.56° C | 58% | 1002 hPa | 0 mm | 1.79 m/s, 290° | 0 W/m² | - |
| 1777963028 | 20.56° C | 58% | 1001.9 hPa | 0 mm | 4.47 m/s, 209° | 0 W/m² | - |
| 1777962734 | 20° C | 60% | 1002 hPa | 0 mm | 7.15 m/s, 201° | 0 W/m² | - |
| 1777962429 | 20.56° C | 58% | 1002.1 hPa | 0 mm | 2.24 m/s, 262° | 0 W/m² | - |
| 1777962135 | 20.56° C | 55% | 1002.4 hPa | 0 mm | 2.68 m/s, 225° | 0 W/m² | - |
| 1777961829 | 21.11° C | 55% | 1002.3 hPa | 0 mm | 4.02 m/s, 204° | 0 W/m² | - |
| 1777961534 | 20.56° C | 56% | 1002.4 hPa | 0 mm | 2.68 m/s, 236° | 0 W/m² | - |
| 1777961229 | 20.56° C | 56% | 1002.4 hPa | 0 mm | 2.24 m/s, 244° | 0 W/m² | - |
* Rain latest hour (hover to see other rain measurements)
** Current wind speed in m/s (hover to see current wind gust speed)